الصفحة الرئيسية
METAR-TAF:

METAR-TAF

مطار :

ميناء القاهرة الجوي

القاهرة, مصر

دائرة عرض: 30-08N, خط طول: 031-24E, ارتفاع: 64 متر

مراقبة الطقس الحالي

تاريخ ووقت الإصدار 18 دقيقة قبل الساعة 22:30UTC
ريح 3 عقدة من الشمال
درجة الحرارة 23°درجة مئوية
الرطوبة 69%
ضغط 1014 hPa
الرؤية 10 كم أو أكثر
الغيوم لا تقل 1500 م ولا وجود لمزنة ركامية السحاب الأسود

METAR: HECA 172230Z 01003KT CAVOK 23/17 Q1014 NOSIG

زمن: 00:48 (22:48 UTC)

توقعات

تاريخ ووقت الإصدار 5ساعات و 48 دقيقة قبل الساعة 17:00UTC
التوقعات صالحة من17 الساعة 18 UTC إلى 18 الساعة 24 UTC
ريح 3 عقدةمن اتجاهات متغيرة
الرؤية: 4000 متر
غيوم متفرقة على ارتفاع 2500 قدم
العجاج

TAF: HECA 171700Z 1718/1824 35006KT 9999 SCT025 TEMPO1803/1806 VRB03KT 4000 HZ NSC

أرصاد الطقس والتوقعات من أكثر من 4000 مطار (تقارير الطقس للمطار METAR والتنبؤ بالطقس بالمطارTAF).

المحطات المتاحة هي النقط الصفراء والحمراء على الخريطة.

حرك المؤشر فوق النقطة لمعرفة اسم المحطة.

ثم انقر لمعرفة أرصاد وتوقعات الطقس.

لتغيير الخارطة: اضغط على الأزرار الخضراء مع رمز الصليب الأسود للتكبير. على الزر الأخضر مع شرطة للتصغير، أو على الأسهم الخضراء للخرائط المجاورة.


METAR-TAF: